Time;durP1;ratioP1;P1;durP2;ratioP2;P2;SDS_P1;SDS_P2;PMS_P1;PMS_P2;Temp;Humidity;BMP_temperature;BMP_pressure;BME280_temperature;BME280_humidity;BME280_pressure;Samples;Min_cycle;Max_cycle;Signal;HPM_P1;HPM_P2
2023/08/26 00:01:49;;;;;;;10.23;8.93;;;17.00;99.90;;;;;;5090542;28;20047;-67
2023/08/26 00:04:15;;;;;;;10.75;9.70;;;16.90;99.90;;;;;;5097126;28;20070;-67
2023/08/26 00:06:41;;;;;;;11.00;9.35;;;16.90;99.90;;;;;;5110240;28;20052;-67
2023/08/26 00:09:06;;;;;;;9.32;8.52;;;16.90;99.90;;;;;;5114552;28;20043;-67
2023/08/26 00:11:32;;;;;;;10.13;9.23;;;16.90;99.90;;;;;;5110676;28;20040;-67
2023/08/26 00:13:57;;;;;;;9.77;8.77;;;16.80;99.90;;;;;;5109532;27;20063;-67
2023/08/26 00:16:23;;;;;;;9.77;8.85;;;16.90;99.90;;;;;;5097445;28;20054;-67
2023/08/26 00:18:49;;;;;;;8.77;7.95;;;16.90;99.90;;;;;;5081303;27;20043;-67
2023/08/26 00:21:17;;;;;;;10.13;8.23;;;16.80;99.90;;;;;;5116306;28;20473;-67
2023/08/26 00:23:42;;;;;;;10.18;7.85;;;16.80;99.90;;;;;;5091164;28;20131;-67
2023/08/26 00:26:11;;;;;;;9.30;8.40;;;16.80;99.90;;;;;;5109143;27;20193;-67
2023/08/26 00:28:36;;;;;;;9.77;7.50;;;16.80;99.90;;;;;;5095001;28;20048;-67
2023/08/26 00:31:03;;;;;;;8.70;7.75;;;16.70;99.90;;;;;;5127420;27;20446;-67
2023/08/26 00:33:29;;;;;;;9.13;7.60;;;16.60;99.90;;;;;;5111224;28;20639;-67
2023/08/26 00:35:54;;;;;;;8.02;7.15;;;16.60;99.90;;;;;;5108217;28;20139;-67
2023/08/26 00:38:20;;;;;;;11.23;7.90;;;16.60;99.90;;;;;;5109771;28;20046;-67
2023/08/26 00:40:46;;;;;;;12.02;8.45;;;16.50;99.90;;;;;;5094765;28;20471;-67
2023/08/26 00:43:11;;;;;;;10.20;8.05;;;16.50;99.90;;;;;;5113240;28;20039;-67
2023/08/26 00:45:43;;;;;;;8.70;7.80;;;16.50;99.90;;;;;;5088434;28;20041;-67
2023/08/26 00:48:11;;;;;;;10.30;8.60;;;16.60;99.90;;;;;;5110239;28;20035;-67
2023/08/26 00:50:38;;;;;;;8.77;7.22;;;16.50;99.90;;;;;;5106495;28;20058;-67
2023/08/26 00:53:05;;;;;;;7.93;7.22;;;16.40;99.90;;;;;;5097986;28;20118;-67
2023/08/26 00:55:32;;;;;;;7.63;6.82;;;16.40;99.90;;;;;;5114042;28;20366;-67
2023/08/26 00:57:58;;;;;;;8.88;8.15;;;16.40;99.90;;;;;;5085728;28;20039;-67
2023/08/26 01:00:25;;;;;;;8.82;7.95;;;16.40;99.90;;;;;;5116414;27;20086;-67
2023/08/26 01:02:50;;;;;;;9.52;7.78;;;16.40;99.90;;;;;;5099415;28;20032;-67
2023/08/26 01:05:17;;;;;;;9.27;8.38;;;16.40;99.90;;;;;;5081936;28;20055;-66
2023/08/26 01:07:44;;;;;;;11.07;8.20;;;16.40;99.90;;;;;;5077752;28;20055;-66
2023/08/26 01:10:10;;;;;;;10.93;8.35;;;16.40;99.90;;;;;;5080137;28;20494;-67
2023/08/26 01:12:53;;;;;;;11.18;8.57;;;16.30;99.90;;;;;;5098518;28;20378;-67
2023/08/26 01:15:19;;;;;;;8.35;7.55;;;16.40;99.90;;;;;;5102738;28;20072;-67
2023/08/26 01:17:45;;;;;;;8.63;7.63;;;16.40;99.90;;;;;;5088924;28;20041;-67
2023/08/26 01:20:12;;;;;;;7.95;7.15;;;16.40;99.90;;;;;;5096488;28;20039;-66
2023/08/26 01:22:41;;;;;;;8.07;7.25;;;16.30;99.90;;;;;;5080541;28;20047;-67
2023/08/26 01:25:07;;;;;;;8.20;7.50;;;16.40;99.90;;;;;;5068632;28;20058;-67
2023/08/26 01:27:33;;;;;;;8.13;6.53;;;16.30;99.90;;;;;;5097391;28;20040;-67
2023/08/26 01:30:00;;;;;;;8.48;7.15;;;16.30;99.90;;;;;;5078151;28;20039;-67
2023/08/26 01:32:29;;;;;;;7.55;6.78;;;16.30;99.90;;;;;;5099459;28;20035;-67
2023/08/26 01:34:57;;;;;;;8.95;7.63;;;16.30;99.90;;;;;;5079735;28;20036;-66
2023/08/26 01:37:24;;;;;;;9.68;6.25;;;16.30;99.90;;;;;;5096484;28;20032;-67
2023/08/26 01:39:52;;;;;;;12.63;7.45;;;16.30;99.90;;;;;;5075577;28;20043;-67
2023/08/26 01:42:19;;;;;;;10.43;6.78;;;16.50;99.90;;;;;;5063995;28;20040;-66
2023/08/26 01:44:46;;;;;;;6.63;5.82;;;16.30;99.90;;;;;;5095269;28;20382;-67
2023/08/26 01:47:12;;;;;;;8.02;5.50;;;16.20;99.90;;;;;;5078851;28;20050;-67
2023/08/26 01:49:37;;;;;;;8.90;5.43;;;16.20;99.90;;;;;;5101823;28;20035;-67
2023/08/26 01:52:03;;;;;;;9.05;5.45;;;16.20;99.90;;;;;;5095145;28;20039;-67
2023/08/26 01:54:29;;;;;;;8.05;4.90;;;16.20;99.90;;;;;;5092289;28;20554;-67
2023/08/26 01:56:54;;;;;;;9.30;5.03;;;16.20;99.90;;;;;;5100385;28;20405;-67
2023/08/26 01:59:20;;;;;;;8.10;4.53;;;16.30;99.90;;;;;;5101122;28;20042;-67
2023/08/26 02:01:45;;;;;;;6.03;3.60;;;16.10;99.90;;;;;;5112067;27;20124;-67
2023/08/26 02:04:11;;;;;;;7.18;3.85;;;16.10;99.90;;;;;;5079365;28;20047;-67
2023/08/26 02:06:40;;;;;;;5.88;3.65;;;16.10;99.90;;;;;;5064233;28;20487;-67
2023/08/26 02:09:06;;;;;;;6.13;3.15;;;16.00;99.90;;;;;;5079439;28;20116;-67
2023/08/26 02:11:32;;;;;;;4.68;3.78;;;16.00;99.90;;;;;;5068712;28;20048;-66
2023/08/26 02:13:57;;;;;;;4.10;3.33;;;16.00;99.90;;;;;;5080409;28;20101;-67
2023/08/26 02:16:23;;;;;;;6.28;3.10;;;16.00;99.90;;;;;;5077396;28;20508;-67
2023/08/26 02:18:49;;;;;;;6.28;3.50;;;15.90;99.90;;;;;;5092596;28;20095;-67
2023/08/26 02:21:14;;;;;;;6.20;2.88;;;15.90;99.90;;;;;;5102750;28;20044;-67
2023/08/26 02:23:40;;;;;;;4.65;2.95;;;15.90;99.90;;;;;;5066816;28;20046;-67
2023/08/26 02:26:06;;;;;;;6.13;3.92;;;15.90;99.90;;;;;;5111924;27;20402;-67
2023/08/26 02:28:31;;;;;;;3.50;2.80;;;15.80;99.90;;;;;;5077152;28;20036;-67
2023/08/26 02:30:57;;;;;;;9.75;3.72;;;15.80;99.90;;;;;;5099488;28;20122;-67
2023/08/26 02:33:24;;;;;;;6.80;2.67;;;15.80;99.90;;;;;;5096880;28;20028;-67
2023/08/26 02:35:50;;;;;;;15.98;3.65;;;15.80;99.90;;;;;;5098334;28;20119;-67
2023/08/26 02:38:15;;;;;;;3.63;2.50;;;15.70;99.90;;;;;;5079735;28;20178;-67
2023/08/26 02:40:41;;;;;;;6.47;2.97;;;15.70;99.90;;;;;;5099520;28;20088;-67
2023/08/26 02:43:07;;;;;;;7.38;3.17;;;15.70;99.90;;;;;;5100537;28;20032;-67
2023/08/26 02:45:32;;;;;;;4.65;3.05;;;15.70;99.90;;;;;;5080596;28;20496;-67
2023/08/26 02:47:58;;;;;;;8.25;3.20;;;15.60;99.90;;;;;;5077491;28;20044;-67
2023/08/26 02:50:24;;;;;;;6.82;3.60;;;15.60;99.90;;;;;;5096479;28;20152;-67
2023/08/26 02:52:50;;;;;;;5.35;3.35;;;15.60;99.90;;;;;;5061173;28;20112;-67
2023/08/26 02:55:16;;;;;;;5.18;2.55;;;15.60;99.90;;;;;;5079876;28;20044;-67
2023/08/26 02:57:42;;;;;;;5.82;2.72;;;15.60;99.90;;;;;;5077284;28;20126;-67
2023/08/26 03:00:09;;;;;;;4.28;2.67;;;15.60;99.90;;;;;;5077234;28;20401;-67
2023/08/26 03:02:35;;;;;;;3.40;2.50;;;15.40;99.90;;;;;;5081936;28;20462;-67
2023/08/26 03:05:01;;;;;;;7.90;3.22;;;15.50;99.90;;;;;;5071531;28;20079;-66
2023/08/26 03:07:27;;;;;;;3.30;2.20;;;15.40;99.90;;;;;;5078757;28;20050;-67
2023/08/26 03:09:53;;;;;;;3.15;2.28;;;15.40;99.90;;;;;;5080317;28;20104;-67
2023/08/26 03:12:18;;;;;;;3.83;2.05;;;15.30;99.90;;;;;;5082484;28;20039;-66
2023/08/26 03:14:44;;;;;;;7.10;2.50;;;15.30;99.90;;;;;;5097980;28;20030;-67
2023/08/26 03:17:09;;;;;;;4.60;2.47;;;15.30;99.90;;;;;;5097758;28;20040;-67
2023/08/26 03:19:35;;;;;;;5.47;2.15;;;15.20;99.90;;;;;;5093354;28;20517;-67
2023/08/26 03:22:01;;;;;;;4.43;2.00;;;15.20;99.90;;;;;;5093138;28;20043;-67
2023/08/26 03:24:27;;;;;;;4.07;2.58;;;15.20;99.90;;;;;;5096973;28;20039;-67
2023/08/26 03:26:52;;;;;;;3.67;2.00;;;15.10;99.90;;;;;;5079225;28;20050;-66
2023/08/26 03:29:18;;;;;;;4.70;3.20;;;15.10;99.90;;;;;;5071915;28;20043;-67
2023/08/26 03:31:44;;;;;;;4.57;2.50;;;15.00;99.90;;;;;;5099587;28;20123;-67
2023/08/26 03:34:09;;;;;;;4.00;2.10;;;15.00;99.90;;;;;;5077938;28;20063;-67
2023/08/26 03:36:35;;;;;;;6.53;2.53;;;15.00;99.90;;;;;;5073093;28;20481;-67
2023/08/26 03:39:01;;;;;;;7.93;2.33;;;14.90;99.90;;;;;;5082095;28;20055;-67
2023/08/26 03:41:26;;;;;;;6.50;2.60;;;14.90;99.90;;;;;;5097401;28;20044;-67
2023/08/26 03:43:52;;;;;;;5.65;2.80;;;14.80;99.90;;;;;;5087327;28;20048;-67
2023/08/26 03:46:18;;;;;;;4.90;2.72;;;14.80;99.90;;;;;;5095722;28;20032;-67
2023/08/26 03:48:43;;;;;;;3.72;2.83;;;14.70;99.90;;;;;;5092370;28;20044;-67
2023/08/26 03:51:09;;;;;;;2.45;2.28;;;14.60;99.90;;;;;;5094286;28;20079;-66
2023/08/26 03:53:35;;;;;;;5.30;2.80;;;14.60;99.90;;;;;;5083286;28;20096;-66
2023/08/26 03:56:01;;;;;;;3.95;2.80;;;14.60;99.90;;;;;;5063395;28;20048;-66
2023/08/26 03:58:27;;;;;;;5.85;3.40;;;14.60;99.90;;;;;;5079943;28;20045;-67
2023/08/26 04:01:01;;;;;;;6.18;2.97;;;14.50;99.90;;;;;;5075136;28;20374;-66
2023/08/26 04:03:26;;;;;;;3.35;2.53;;;14.50;99.90;;;;;;5087589;28;20078;-67
2023/08/26 04:06:03;;;;;;;3.10;2.80;;;14.40;99.90;;;;;;5094311;28;20489;-67
2023/08/26 04:08:30;;;;;;;3.83;3.00;;;14.40;99.90;;;;;;5077853;28;20086;-67
2023/08/26 04:10:57;;;;;;;5.50;3.33;;;14.40;99.90;;;;;;5093421;28;20394;-67
2023/08/26 04:13:25;;;;;;;5.60;4.68;;;14.30;99.90;;;;;;5078673;28;20051;-66
2023/08/26 04:15:55;;;;;;;7.57;5.10;;;14.30;99.90;;;;;;5096594;28;20036;-66
2023/08/26 04:18:22;;;;;;;5.40;4.70;;;14.50;99.90;;;;;;5080353;28;20044;-67
2023/08/26 04:20:49;;;;;;;7.60;5.22;;;14.20;99.90;;;;;;5079493;28;20165;-67
2023/08/26 04:23:14;;;;;;;5.30;4.80;;;14.30;99.90;;;;;;5061504;28;20050;-67
2023/08/26 04:25:42;;;;;;;4.80;4.40;;;14.30;99.90;;;;;;5090706;28;20078;-67
2023/08/26 04:28:08;;;;;;;5.85;4.45;;;14.30;99.90;;;;;;5077276;28;20397;-67
2023/08/26 04:30:34;;;;;;;8.55;5.90;;;14.30;99.90;;;;;;5078680;28;20547;-67
2023/08/26 04:33:00;;;;;;;6.50;4.85;;;14.20;99.90;;;;;;5080870;28;20072;-67
2023/08/26 04:35:27;;;;;;;5.72;5.15;;;14.30;99.90;;;;;;5099609;28;20409;-67
2023/08/26 04:37:52;;;;;;;5.80;4.75;;;14.30;99.90;;;;;;5097415;28;20928;-67
2023/08/26 04:40:18;;;;;;;7.40;5.10;;;14.40;99.90;;;;;;5078258;28;20089;-67
2023/08/26 04:42:44;;;;;;;14.00;5.00;;;14.40;99.90;;;;;;5081250;28;20086;-66
2023/08/26 04:45:12;;;;;;;7.15;5.50;;;14.40;99.90;;;;;;5101080;28;20474;-66
2023/08/26 04:47:38;;;;;;;10.45;5.43;;;14.40;99.90;;;;;;5096338;28;20496;-66
2023/08/26 04:50:04;;;;;;;6.88;5.50;;;14.50;99.90;;;;;;5104117;28;20035;-66
2023/08/26 04:52:29;;;;;;;6.55;4.68;;;14.50;99.90;;;;;;5085232;28;20435;-66
2023/08/26 04:54:56;;;;;;;8.23;4.45;;;14.60;99.90;;;;;;5075235;28;20044;-66
2023/08/26 04:57:22;;;;;;;5.53;4.72;;;14.60;99.90;;;;;;5082343;28;20646;-67
2023/08/26 04:59:47;;;;;;;8.77;4.85;;;14.70;99.90;;;;;;5080286;28;20048;-66
2023/08/26 05:02:13;;;;;;;5.80;5.20;;;14.70;99.90;;;;;;5105948;28;20035;-67
2023/08/26 05:04:39;;;;;;;7.80;4.85;;;14.70;99.90;;;;;;5107152;27;20044;-66
2023/08/26 05:07:04;;;;;;;5.53;5.03;;;14.70;99.90;;;;;;5090217;28;20047;-67
2023/08/26 05:09:30;;;;;;;6.82;5.03;;;14.70;99.90;;;;;;5078946;28;20043;-67
2023/08/26 05:11:57;;;;;;;7.40;5.03;;;14.70;99.90;;;;;;5075456;28;20061;-66
2023/08/26 05:14:23;;;;;;;5.78;5.10;;;14.70;99.90;;;;;;5111135;27;20090;-66
2023/08/26 05:16:49;;;;;;;8.70;5.57;;;14.80;99.90;;;;;;5098656;28;20139;-67
2023/08/26 05:19:14;;;;;;;9.50;5.38;;;14.80;99.90;;;;;;5096667;28;20126;-66
2023/08/26 05:21:40;;;;;;;7.75;5.68;;;14.80;99.90;;;;;;5100837;28;20036;-66
2023/08/26 05:24:06;;;;;;;8.65;6.22;;;14.90;99.90;;;;;;5112267;27;20048;-66
2023/08/26 05:26:32;;;;;;;9.35;6.82;;;14.90;99.90;;;;;;5076983;28;20444;-66
2023/08/26 05:28:58;;;;;;;13.75;7.03;;;15.00;99.90;;;;;;5081645;28;20461;-66
2023/08/26 05:31:23;;;;;;;9.50;7.25;;;15.00;99.90;;;;;;5093695;28;20083;-66
2023/08/26 05:33:49;;;;;;;11.30;6.25;;;15.00;99.90;;;;;;5078582;28;20043;-67
2023/08/26 05:36:15;;;;;;;7.15;6.18;;;15.10;99.90;;;;;;5081746;28;20051;-67
2023/08/26 05:38:40;;;;;;;7.15;6.20;;;15.10;99.90;;;;;;5094875;28;20593;-67
2023/08/26 05:41:06;;;;;;;8.27;7.15;;;15.20;99.90;;;;;;5083116;28;20043;-66
2023/08/26 05:43:31;;;;;;;8.35;6.72;;;15.20;99.90;;;;;;5093966;28;20097;-66
2023/08/26 05:45:57;;;;;;;13.90;7.18;;;15.30;99.90;;;;;;5076762;28;20085;-67
2023/08/26 05:48:23;;;;;;;9.65;7.15;;;15.30;99.90;;;;;;5097793;28;20063;-67
2023/08/26 05:50:48;;;;;;;7.57;6.82;;;15.40;99.90;;;;;;5096414;28;20466;-67
2023/08/26 05:53:14;;;;;;;7.22;6.50;;;15.40;99.90;;;;;;5097293;28;20174;-66
2023/08/26 05:55:43;;;;;;;8.00;6.43;;;15.40;99.90;;;;;;5098795;28;20040;-67
2023/08/26 05:58:09;;;;;;;7.85;6.53;;;15.50;99.90;;;;;;5094881;28;20446;-67
2023/08/26 06:00:35;;;;;;;7.53;6.80;;;15.50;99.90;;;;;;5094987;28;20120;-66
2023/08/26 06:03:01;;;;;;;6.60;5.95;;;15.50;99.90;;;;;;5113876;27;20050;-67
2023/08/26 06:05:27;;;;;;;12.02;7.13;;;15.50;99.90;;;;;;5112721;27;20036;-67
2023/08/26 06:07:53;;;;;;;8.43;7.18;;;15.50;99.90;;;;;;5082512;28;20042;-66
2023/08/26 06:10:19;;;;;;;7.65;6.82;;;15.60;99.90;;;;;;5080130;28;20040;-66
2023/08/26 06:12:45;;;;;;;7.88;6.85;;;15.60;99.90;;;;;;5098557;28;20028;-66
2023/08/26 06:15:11;;;;;;;7.80;6.90;;;15.60;99.90;;;;;;5082726;28;20497;-67
2023/08/26 06:17:40;;;;;;;8.95;7.68;;;15.60;99.90;;;;;;5113518;27;20050;-67
2023/08/26 06:20:07;;;;;;;10.18;7.00;;;15.60;99.90;;;;;;5097148;28;20040;-67
2023/08/26 06:22:32;;;;;;;10.68;7.25;;;15.60;99.90;;;;;;5098367;28;20032;-66
2023/08/26 06:24:59;;;;;;;8.73;7.30;;;15.60;99.90;;;;;;5098632;28;20047;-65
2023/08/26 06:27:27;;;;;;;8.77;7.40;;;15.60;99.90;;;;;;5093937;28;20123;-66
2023/08/26 06:29:53;;;;;;;10.30;7.85;;;15.70;99.90;;;;;;5098255;28;20036;-66
2023/08/26 06:32:19;;;;;;;7.90;7.10;;;15.70;99.90;;;;;;5097106;28;20044;-66
2023/08/26 06:34:45;;;;;;;10.35;8.45;;;15.70;99.90;;;;;;5090895;28;20062;-66
2023/08/26 06:37:11;;;;;;;9.65;8.18;;;15.70;99.90;;;;;;5079610;28;20039;-67
2023/08/26 06:39:36;;;;;;;10.23;7.75;;;15.80;99.90;;;;;;5082492;28;20067;-66
2023/08/26 06:42:02;;;;;;;12.10;8.88;;;15.70;99.90;;;;;;5100265;28;20498;-67
2023/08/26 06:44:28;;;;;;;10.20;8.95;;;15.90;99.90;;;;;;5117344;27;20040;-67
2023/08/26 06:46:54;;;;;;;17.00;9.52;;;15.90;99.90;;;;;;5104651;27;20046;-67
2023/08/26 06:49:19;;;;;;;13.75;9.65;;;16.00;99.90;;;;;;5079311;28;20535;-67
2023/08/26 06:51:45;;;;;;;12.57;10.85;;;16.00;99.90;;;;;;5074150;28;20577;-67
2023/08/26 06:54:11;;;;;;;12.05;9.63;;;16.00;99.90;;;;;;5082629;28;20039;-67
2023/08/26 06:56:36;;;;;;;16.00;12.40;;;16.10;99.90;;;;;;5098444;28;20092;-67
2023/08/26 06:59:02;;;;;;;13.98;12.27;;;16.20;99.90;;;;;;5097708;28;20043;-67
2023/08/26 07:01:28;;;;;;;15.65;11.82;;;16.20;99.90;;;;;;5097641;28;20040;-67
2023/08/26 07:04:04;;;;;;;13.50;12.15;;;16.20;99.90;;;;;;5079924;28;20050;-67
2023/08/26 07:06:31;;;;;;;14.55;12.60;;;16.30;99.90;;;;;;5095892;28;20118;-67
2023/08/26 07:08:56;;;;;;;16.30;13.00;;;16.30;99.90;;;;;;5082350;28;20032;-66
2023/08/26 07:11:22;;;;;;;16.83;11.95;;;16.30;99.90;;;;;;5080262;28;20044;-67
2023/08/26 07:13:48;;;;;;;14.15;11.07;;;16.40;99.90;;;;;;5111240;27;20031;-67
2023/08/26 07:16:14;;;;;;;16.48;11.00;;;16.20;99.90;;;;;;5095345;28;20139;-67
2023/08/26 07:18:39;;;;;;;17.48;11.30;;;16.20;99.90;;;;;;5093259;28;20048;-67
2023/08/26 07:21:05;;;;;;;11.68;10.30;;;16.30;99.90;;;;;;5096874;28;20036;-66
2023/08/26 07:23:32;;;;;;;14.80;10.63;;;16.30;99.90;;;;;;5099413;28;20043;-67
2023/08/26 07:25:57;;;;;;;11.73;10.45;;;16.40;99.90;;;;;;5099865;28;20189;-66
2023/08/26 07:28:23;;;;;;;12.95;11.05;;;16.30;99.90;;;;;;5077982;28;20542;-66
2023/08/26 07:30:49;;;;;;;12.52;10.48;;;16.30;99.90;;;;;;5076861;28;20115;-67
2023/08/26 07:33:14;;;;;;;11.48;10.38;;;16.40;99.90;;;;;;5110759;27;20109;-66
2023/08/26 07:35:40;;;;;;;12.15;9.43;;;16.40;99.90;;;;;;5092048;28;20180;-70
2023/08/26 07:38:06;;;;;;;15.93;10.52;;;16.50;99.90;;;;;;5060153;28;20040;-70
2023/08/26 07:40:32;;;;;;;25.85;11.85;;;16.60;99.90;;;;;;5099195;28;20505;-70
2023/08/26 07:42:58;;;;;;;12.82;10.13;;;16.70;99.90;;;;;;5100658;28;20122;-70
2023/08/26 07:45:24;;;;;;;12.82;10.93;;;16.80;99.90;;;;;;5092797;28;20394;-70
2023/08/26 07:47:50;;;;;;;13.23;10.73;;;16.90;99.90;;;;;;5075177;28;20028;-70
2023/08/26 07:50:16;;;;;;;10.85;9.70;;;16.90;99.90;;;;;;5099144;28;20101;-69
2023/08/26 07:52:41;;;;;;;11.52;9.55;;;17.10;99.90;;;;;;5100682;28;20071;-70
2023/08/26 07:55:07;;;;;;;10.38;9.27;;;17.40;99.90;;;;;;5093775;28;20127;-71
2023/08/26 07:57:33;;;;;;;15.70;9.57;;;17.50;99.90;;;;;;5077543;28;20039;-70
2023/08/26 07:59:59;;;;;;;11.18;8.27;;;17.80;99.90;;;;;;5098744;28;20050;-70
2023/08/26 08:02:24;;;;;;;9.23;8.25;;;18.10;99.90;;;;;;5099224;28;20119;-70
2023/08/26 08:04:50;;;;;;;9.25;8.23;;;18.10;99.90;;;;;;5076978;28;20047;-70
2023/08/26 08:07:15;;;;;;;8.10;7.30;;;18.10;99.90;;;;;;5080570;28;20052;-70
2023/08/26 08:09:41;;;;;;;9.10;7.82;;;18.10;99.90;;;;;;5082003;28;20067;-70
2023/08/26 08:12:09;;;;;;;9.43;7.38;;;18.20;99.90;;;;;;5104167;28;20039;-70
2023/08/26 08:14:35;;;;;;;8.65;7.82;;;18.40;99.90;;;;;;5097830;28;20478;-72
2023/08/26 08:17:00;;;;;;;9.57;8.50;;;18.80;99.90;;;;;;5078114;28;20044;-70
2023/08/26 08:19:26;;;;;;;13.57;7.90;;;19.10;99.90;;;;;;5099431;28;20085;-70
2023/08/26 08:21:51;;;;;;;11.15;7.43;;;19.40;99.90;;;;;;5103072;28;20039;-70
2023/08/26 08:24:17;;;;;;;8.63;7.70;;;19.40;99.90;;;;;;5083632;28;20043;-69
2023/08/26 08:26:45;;;;;;;10.35;7.70;;;19.50;99.90;;;;;;5081600;28;20044;-72
2023/08/26 08:29:10;;;;;;;8.68;6.90;;;19.50;99.90;;;;;;5097733;28;20036;-69
2023/08/26 08:31:37;;;;;;;9.27;7.18;;;19.70;99.90;;;;;;5101663;28;20046;-69
2023/08/26 08:34:03;;;;;;;9.05;6.80;;;19.80;99.90;;;;;;5101305;28;20119;-70
2023/08/26 08:36:29;;;;;;;8.85;6.93;;;20.00;99.90;;;;;;5100061;28;20048;-70
2023/08/26 08:38:56;;;;;;;11.10;7.22;;;20.00;99.90;;;;;;5098063;28;20054;-70
2023/08/26 08:41:22;;;;;;;9.55;6.93;;;20.00;99.90;;;;;;5098165;28;20043;-68
2023/08/26 08:43:51;;;;;;;9.85;6.55;;;20.00;99.90;;;;;;5099396;28;20032;-69
2023/08/26 08:46:19;;;;;;;8.02;6.82;;;19.80;99.90;;;;;;5082294;28;20040;-69
2023/08/26 08:48:45;;;;;;;7.03;6.07;;;19.70;99.90;;;;;;5102458;28;20043;-69
2023/08/26 08:51:12;;;;;;;9.77;6.50;;;19.60;99.90;;;;;;5082934;28;20115;-69
2023/08/26 08:53:45;;;;;;;7.35;5.85;;;19.70;99.90;;;;;;5083621;28;20085;-68
2023/08/26 08:56:15;;;;;;;9.27;6.07;;;20.00;99.90;;;;;;5099623;28;20040;-69
2023/08/26 08:58:45;;;;;;;7.07;6.18;;;20.30;99.90;;;;;;5099999;28;20035;-70
2023/08/26 09:01:11;;;;;;;8.98;6.65;;;20.50;99.90;;;;;;5080448;28;20047;-70
2023/08/26 09:03:37;;;;;;;9.32;6.45;;;20.70;99.90;;;;;;5102406;28;20040;-68
2023/08/26 09:06:03;;;;;;;9.55;6.25;;;20.80;99.90;;;;;;5104028;28;20055;-69
2023/08/26 09:08:30;;;;;;;12.63;6.32;;;20.70;99.90;;;;;;5084306;28;20051;-67
2023/08/26 09:10:56;;;;;;;7.25;5.13;;;20.80;99.90;;;;;;5099371;28;20032;-70
2023/08/26 09:13:21;;;;;;;7.80;4.72;;;20.90;99.90;;;;;;5078874;28;20062;-69
2023/08/26 09:15:47;;;;;;;6.72;5.05;;;21.00;99.90;;;;;;5104351;28;20075;-68
2023/08/26 09:18:15;;;;;;;7.63;4.43;;;21.10;99.90;;;;;;5078877;28;20040;-71
2023/08/26 09:20:41;;;;;;;8.15;4.60;;;21.10;99.90;;;;;;5082745;28;20054;-69
2023/08/26 09:23:08;;;;;;;12.32;5.57;;;21.20;99.90;;;;;;5101952;28;20457;-69
2023/08/26 09:25:35;;;;;;;7.78;4.22;;;21.10;99.90;;;;;;5100003;28;20082;-69
2023/08/26 09:28:00;;;;;;;10.85;4.60;;;21.10;99.90;;;;;;5092134;28;20036;-70
2023/08/26 09:30:26;;;;;;;9.20;4.53;;;21.30;99.90;;;;;;5080487;28;20040;-67
2023/08/26 09:32:53;;;;;;;5.82;3.38;;;21.50;99.90;;;;;;5098882;28;20035;-70
2023/08/26 09:35:19;;;;;;;6.75;2.95;;;21.50;99.90;;;;;;5087410;28;20061;-70
2023/08/26 09:37:46;;;;;;;6.05;3.80;;;21.40;99.90;;;;;;5098113;28;20036;-69
2023/08/26 09:40:13;;;;;;;7.78;3.58;;;20.90;99.90;;;;;;5096356;28;20546;-67
2023/08/26 09:42:40;;;;;;;8.70;3.83;;;20.80;99.90;;;;;;5089339;28;20062;-68
2023/08/26 09:45:14;;;;;;;13.10;4.05;;;20.80;99.90;;;;;;5096922;28;20047;-69
2023/08/26 09:47:40;;;;;;;8.83;3.93;;;20.60;99.90;;;;;;5101412;28;20054;-68
2023/08/26 09:50:07;;;;;;;7.63;3.63;;;20.40;99.90;;;;;;5091458;28;20114;-70
2023/08/26 09:52:46;;;;;;;5.60;2.90;;;20.60;99.90;;;;;;5094120;28;20032;-70
2023/08/26 09:55:13;;;;;;;8.98;2.35;;;20.70;99.90;;;;;;5078765;28;20044;-69
2023/08/26 09:57:39;;;;;;;9.68;2.22;;;21.00;99.90;;;;;;5093854;28;20511;-68
2023/08/26 10:00:08;;;;;;;7.75;2.15;;;21.40;99.90;;;;;;5101325;28;20044;-68
2023/08/26 10:02:37;;;;;;;5.38;1.27;;;21.50;99.90;;;;;;5074890;28;20052;-69
2023/08/26 10:05:09;;;;;;;5.35;1.75;;;21.70;99.90;;;;;;5096924;28;20044;-68
2023/08/26 10:07:36;;;;;;;5.22;1.50;;;22.00;99.90;;;;;;5091709;28;20379;-69
2023/08/26 10:10:12;;;;;;;4.93;1.77;;;22.10;99.90;;;;;;5076573;28;20119;-68
2023/08/26 10:12:41;;;;;;;5.72;1.33;;;22.10;99.90;;;;;;5078741;28;20036;-70
2023/08/26 10:15:13;;;;;;;5.93;1.50;;;21.80;99.90;;;;;;5083698;28;20561;-68
2023/08/26 10:17:46;;;;;;;5.18;1.25;;;21.70;99.90;;;;;;5099099;28;20044;-70
2023/08/26 10:20:12;;;;;;;5.72;1.02;;;21.60;99.90;;;;;;5078043;28;20398;-69
2023/08/26 10:22:38;;;;;;;5.22;1.30;;;21.60;99.90;;;;;;5065983;28;20036;-69
2023/08/26 10:25:05;;;;;;;4.28;1.58;;;21.80;99.90;;;;;;5092633;28;20352;-70
2023/08/26 10:27:32;;;;;;;8.07;1.80;;;22.00;99.90;;;;;;5088963;28;20493;-70
2023/08/26 10:29:59;;;;;;;7.82;1.63;;;22.10;99.90;;;;;;5082562;28;20032;-70
2023/08/26 10:32:27;;;;;;;3.63;1.10;;;22.30;99.90;;;;;;5099447;28;20389;-70
2023/08/26 10:34:59;;;;;;;6.65;2.70;;;22.40;99.90;;;;;;5099930;28;20039;-71
2023/08/26 10:37:26;;;;;;;12.48;2.22;;;22.60;99.90;;;;;;5070498;28;20619;-70
2023/08/26 10:39:52;;;;;;;7.63;1.73;;;22.70;99.90;;;;;;5082098;28;20080;-70
2023/08/26 10:42:19;;;;;;;6.05;1.80;;;22.80;99.90;;;;;;5085099;28;20570;-71
2023/08/26 10:44:56;;;;;;;7.32;1.98;;;22.90;99.90;;;;;;5076630;28;20486;-71
2023/08/26 10:47:40;;;;;;;5.07;1.02;;;23.00;99.90;;;;;;5101682;28;20043;-70
2023/08/26 10:50:23;;;;;;;4.18;1.00;;;23.10;99.90;;;;;;5080392;28;20044;-70
2023/08/26 10:52:53;;;;;;;3.47;1.00;;;23.20;99.90;;;;;;5065757;28;20075;-70
2023/08/26 10:55:44;;;;;;;17.38;3.05;;;23.30;99.90;;;;;;5099961;28;20036;-70
2023/08/26 10:58:16;;;;;;;7.85;1.13;;;23.30;99.90;;;;;;5073544;28;20044;-72
2023/08/26 11:00:52;;;;;;;3.80;0.88;;;23.30;99.90;;;;;;5097069;28;20028;-71
2023/08/26 11:03:20;;;;;;;6.15;2.08;;;23.50;99.90;;;;;;5100057;28;20032;-71
2023/08/26 11:05:59;;;;;;;2.67;0.98;;;23.40;99.90;;;;;;5093653;28;20083;-70
2023/08/26 11:08:25;;;;;;;4.38;1.40;;;23.40;99.90;;;;;;5088909;28;20032;-71
2023/08/26 11:10:51;;;;;;;6.30;1.00;;;23.40;99.90;;;;;;5072481;28;20044;-70
2023/08/26 11:13:17;;;;;;;2.67;0.60;;;23.60;99.90;;;;;;5098230;28;20038;-70
2023/08/26 11:15:43;;;;;;;2.80;0.88;;;23.40;99.90;;;;;;5092271;28;20534;-71
2023/08/26 11:18:11;;;;;;;6.35;1.38;;;23.30;99.90;;;;;;5092396;28;20036;-70
2023/08/26 11:20:37;;;;;;;2.65;0.70;;;23.30;99.90;;;;;;5093629;28;20046;-71
2023/08/26 11:23:06;;;;;;;2.80;0.85;;;23.50;99.90;;;;;;5101870;28;20039;-69
2023/08/26 11:25:38;;;;;;;2.22;0.80;;;23.70;99.90;;;;;;5079973;28;20100;-71
2023/08/26 11:28:06;;;;;;;2.90;1.10;;;24.10;99.90;;;;;;5077053;28;20036;-69
2023/08/26 11:30:45;;;;;;;1.88;0.50;;;23.60;99.90;;;;;;5065288;28;20033;-69
2023/08/26 11:33:16;;;;;;;4.53;1.02;;;23.30;99.90;;;;;;5095604;28;20035;-69
2023/08/26 11:35:45;;;;;;;1.98;0.70;;;23.00;99.90;;;;;;5115518;27;20040;-71
2023/08/26 11:38:12;;;;;;;4.25;1.83;;;22.70;99.90;;;;;;5078662;28;20492;-71
2023/08/26 11:40:38;;;;;;;6.47;1.25;;;22.50;99.90;;;;;;5098171;28;20119;-72
2023/08/26 11:43:13;;;;;;;2.47;0.90;;;22.30;99.90;;;;;;5099974;28;20600;-71
2023/08/26 11:45:42;;;;;;;8.05;1.20;;;22.20;99.90;;;;;;5115643;27;20051;-70
2023/08/26 11:48:11;;;;;;;3.38;0.90;;;22.10;99.90;;;;;;5077331;28;20085;-71
2023/08/26 11:50:37;;;;;;;1.83;1.10;;;22.10;99.90;;;;;;5080476;28;20127;-71
2023/08/26 11:53:04;;;;;;;1.70;0.93;;;22.10;99.90;;;;;;5097151;28;20027;-70
2023/08/26 11:55:33;;;;;;;1.83;0.68;;;22.20;99.90;;;;;;5073928;28;20604;-71
2023/08/26 11:58:00;;;;;;;2.95;1.10;;;22.40;99.90;;;;;;5098077;28;20046;-70
2023/08/26 12:00:27;;;;;;;3.05;1.33;;;22.80;99.90;;;;;;5085366;28;20040;-70
2023/08/26 12:02:55;;;;;;;1.65;0.85;;;23.00;99.90;;;;;;5083894;28;20486;-70
2023/08/26 12:05:21;;;;;;;2.33;0.95;;;23.20;99.90;;;;;;5074786;28;20118;-70
2023/08/26 12:07:48;;;;;;;0.80;0.70;;;23.30;99.90;;;;;;5098078;28;20542;-71
2023/08/26 12:10:17;;;;;;;2.10;1.08;;;23.20;99.90;;;;;;5099011;28;20510;-70
2023/08/26 12:12:44;;;;;;;3.88;1.10;;;23.10;99.90;;;;;;5098097;28;20032;-70
2023/08/26 12:15:17;;;;;;;2.47;1.00;;;23.10;99.90;;;;;;5094348;28;20133;-71
2023/08/26 12:17:54;;;;;;;3.33;0.82;;;23.10;99.90;;;;;;5078134;28;20039;-72
2023/08/26 12:20:27;;;;;;;2.38;1.35;;;22.80;99.90;;;;;;5103731;28;20456;-72
2023/08/26 12:23:00;;;;;;;2.78;1.98;;;22.70;99.90;;;;;;5098329;28;20071;-72
2023/08/26 12:25:31;;;;;;;1.67;0.93;;;22.70;99.90;;;;;;5096128;28;20043;-71
2023/08/26 12:28:17;;;;;;;2.05;0.70;;;22.70;99.90;;;;;;5097698;28;20047;-71
2023/08/26 12:30:43;;;;;;;2.85;0.50;;;22.80;99.90;;;;;;5079601;28;20036;-70
2023/08/26 12:33:10;;;;;;;3.40;0.77;;;23.00;99.90;;;;;;5100409;28;20440;-69
2023/08/26 12:35:37;;;;;;;1.90;0.60;;;23.10;99.90;;;;;;5110033;28;20036;-70
2023/08/26 12:38:03;;;;;;;1.17;0.55;;;23.10;99.90;;;;;;5096037;28;20455;-70
2023/08/26 12:40:39;;;;;;;2.63;0.40;;;23.10;99.90;;;;;;5099136;28;20519;-70
2023/08/26 12:43:05;;;;;;;2.65;0.95;;;23.20;99.90;;;;;;5076354;28;20044;-70